createdAt,value
2022-10-19T00:01:17.127Z,0.50
2022-10-19T00:06:25.886Z,0.50
2022-10-19T00:08:59.340Z,0.50
2022-10-19T00:11:27.912Z,0.50
2022-10-19T00:13:57.142Z,0.50
2022-10-19T00:16:27.440Z,0.50
2022-10-19T00:18:58.261Z,0.40
2022-10-19T00:21:25.908Z,0.50
2022-10-19T00:23:53.384Z,0.77
2022-10-19T00:26:20.793Z,0.55
2022-10-19T00:28:48.184Z,0.75
2022-10-19T00:31:18.371Z,0.50
2022-10-19T00:33:47.081Z,0.50
2022-10-19T00:36:25.118Z,0.40
2022-10-19T00:38:53.682Z,1.13
2022-10-19T00:41:23.491Z,0.50
2022-10-19T00:43:58.461Z,0.60
2022-10-19T00:46:27.553Z,0.50
2022-10-19T00:49:01.224Z,0.60
2022-10-19T00:51:30.459Z,0.70
2022-10-19T00:53:58.037Z,0.60
2022-10-19T00:56:26.618Z,0.60
2022-10-19T00:58:53.915Z,0.68
2022-10-19T01:01:24.704Z,0.55
2022-10-19T01:03:51.994Z,0.50
2022-10-19T01:06:19.793Z,0.45
2022-10-19T01:08:47.119Z,0.50
2022-10-19T01:11:32.825Z,0.60
2022-10-19T01:14:03.427Z,0.50
2022-10-19T01:17:05.019Z,0.70
2022-10-19T01:19:57.764Z,0.50
2022-10-19T01:22:42.100Z,0.50
2022-10-19T01:25:43.608Z,0.60
2022-10-19T01:28:48.432Z,0.43
2022-10-19T01:31:31.888Z,0.80
2022-10-19T01:34:32.843Z,1.10
2022-10-19T01:37:21.021Z,0.50
2022-10-19T01:39:57.707Z,0.63
2022-10-19T01:42:51.345Z,0.50
2022-10-19T01:45:24.883Z,0.50
2022-10-19T01:47:54.419Z,0.55
2022-10-19T01:50:31.577Z,1.02
2022-10-19T01:52:59.986Z,0.52
2022-10-19T01:55:28.364Z,0.40
2022-10-19T01:58:01.191Z,0.63
2022-10-19T02:00:30.880Z,0.60
2022-10-19T02:03:00.739Z,0.75
2022-10-19T02:05:32.195Z,0.60
2022-10-19T02:08:08.298Z,0.90
2022-10-19T02:10:38.917Z,0.50
2022-10-19T02:13:07.795Z,0.60
2022-10-19T02:15:39.724Z,0.50
2022-10-19T02:18:08.492Z,0.93
2022-10-19T02:20:37.339Z,0.75
2022-10-19T02:23:08.414Z,0.50
2022-10-19T02:25:36.533Z,0.77
2022-10-19T02:28:05.643Z,0.70
2022-10-19T02:30:33.148Z,0.73
2022-10-19T02:33:00.680Z,0.50
2022-10-19T02:35:28.361Z,0.60
2022-10-19T02:37:59.527Z,0.70
2022-10-19T02:40:29.935Z,0.73
2022-10-19T02:43:04.119Z,0.50
2022-10-19T02:45:36.707Z,0.45
2022-10-19T02:48:12.626Z,0.40
2022-10-19T02:50:44.465Z,0.50
2022-10-19T02:53:11.884Z,0.70
2022-10-19T02:58:11.512Z,0.60
2022-10-19T03:00:39.016Z,1.00
2022-10-19T03:03:06.616Z,0.40
2022-10-19T03:05:33.949Z,0.52
2022-10-19T03:08:01.427Z,0.73
2022-10-19T03:10:28.912Z,0.40
2022-10-19T03:12:58.439Z,0.40
2022-10-19T03:15:29.150Z,0.40
2022-10-19T03:17:56.850Z,0.50
2022-10-19T03:20:24.358Z,1.60
2022-10-19T03:25:23.971Z,1.05
2022-10-19T03:27:53.723Z,0.45
2022-10-19T03:30:20.962Z,0.60
2022-10-19T03:32:48.290Z,0.60
2022-10-19T03:35:15.706Z,0.90
2022-10-19T03:37:43.062Z,0.60
2022-10-19T03:40:10.556Z,0.60
2022-10-19T03:42:37.935Z,0.63
2022-10-19T03:45:05.633Z,1.25
2022-10-19T03:47:33.270Z,0.50
2022-10-19T03:50:00.929Z,0.38
2022-10-19T03:52:28.313Z,0.60
2022-10-19T03:54:55.546Z,0.60
2022-10-19T03:57:22.921Z,0.50
2022-10-19T03:59:50.296Z,0.60
2022-10-19T04:02:17.622Z,0.60
2022-10-19T04:04:44.873Z,2.00
2022-10-19T04:07:12.130Z,0.60
2022-10-19T04:09:39.795Z,0.80
2022-10-19T04:12:07.137Z,0.90
2022-10-19T04:14:52.672Z,0.60
2022-10-19T04:17:21.638Z,0.40
2022-10-19T04:19:49.035Z,0.80
2022-10-19T04:22:16.347Z,0.73
2022-10-19T04:24:43.540Z,0.90
2022-10-19T04:27:10.861Z,1.20
2022-10-19T04:29:38.252Z,0.88
2022-10-19T04:32:05.732Z,0.65
2022-10-19T04:34:35.226Z,0.70
2022-10-19T04:37:05.088Z,0.70
2022-10-19T04:39:32.412Z,0.60
2022-10-19T04:41:59.694Z,0.60
2022-10-19T04:44:26.998Z,0.88
2022-10-19T04:46:54.241Z,0.93
2022-10-19T04:49:21.512Z,0.70
2022-10-19T04:51:48.892Z,0.60
2022-10-19T04:54:16.160Z,1.30
2022-10-19T04:56:43.420Z,0.73
2022-10-19T04:59:10.775Z,1.35
2022-10-19T05:01:40.403Z,0.70
2022-10-19T05:04:10.394Z,0.50
2022-10-19T05:06:38.155Z,0.80
2022-10-19T05:09:05.443Z,0.80
2022-10-19T05:11:32.729Z,0.98
2022-10-19T05:13:59.951Z,1.02
2022-10-19T05:16:27.325Z,0.65
2022-10-19T05:18:56.903Z,0.77
2022-10-19T05:21:24.965Z,0.90
2022-10-19T05:23:54.144Z,1.45
2022-10-19T05:26:26.251Z,0.80
2022-10-19T05:28:56.617Z,0.90
2022-10-19T05:31:27.077Z,1.65
2022-10-19T05:33:56.373Z,1.10
2022-10-19T05:36:26.299Z,0.77
2022-10-19T05:38:56.095Z,1.08
2022-10-19T05:41:25.332Z,0.73
2022-10-19T05:43:55.143Z,0.80
2022-10-19T05:46:22.701Z,1.00
2022-10-19T05:48:50.011Z,0.80
2022-10-19T05:51:19.818Z,0.90
2022-10-19T05:53:47.450Z,0.73
2022-10-19T05:56:19.637Z,1.30
2022-10-19T05:58:48.032Z,0.85
2022-10-19T06:01:16.614Z,0.80
2022-10-19T06:03:43.857Z,1.52
2022-10-19T06:06:12.055Z,0.90
2022-10-19T06:08:39.680Z,1.00
2022-10-19T06:11:09.799Z,1.10
2022-10-19T06:13:37.933Z,0.80
2022-10-19T06:16:06.865Z,1.10
2022-10-19T06:18:34.292Z,0.90
2022-10-19T06:21:03.953Z,1.10
2022-10-19T06:23:32.757Z,0.85
2022-10-19T06:26:03.682Z,1.10
2022-10-19T06:28:30.979Z,1.10
2022-10-19T06:30:59.416Z,1.13
2022-10-19T06:33:27.910Z,1.15
2022-10-19T06:35:55.481Z,1.55
2022-10-19T06:38:22.804Z,1.00
2022-10-19T06:40:50.067Z,2.25
2022-10-19T06:43:17.299Z,1.02
2022-10-19T06:45:44.564Z,1.38
2022-10-19T06:48:11.824Z,1.38
2022-10-19T06:50:39.127Z,1.40
2022-10-19T06:53:06.464Z,1.25
2022-10-19T06:55:33.759Z,1.02
2022-10-19T06:58:01.922Z,1.00
2022-10-19T07:00:30.334Z,1.67
2022-10-19T07:02:59.491Z,0.98
2022-10-19T07:05:26.931Z,2.28
2022-10-19T07:07:54.211Z,1.67
2022-10-19T07:10:21.533Z,1.50
2022-10-19T07:12:48.865Z,1.15
2022-10-19T07:15:16.195Z,1.95
2022-10-19T07:17:43.440Z,1.27
2022-10-19T07:20:11.635Z,0.90
2022-10-19T07:22:38.891Z,1.38
2022-10-19T07:25:06.345Z,0.85
2022-10-19T07:27:37.849Z,2.13
2022-10-19T07:30:05.542Z,0.93
2022-10-19T07:32:32.737Z,0.93
2022-10-19T07:34:59.998Z,1.77
2022-10-19T07:37:27.345Z,0.73
2022-10-19T07:39:54.579Z,1.23
2022-10-19T07:44:53.859Z,1.50
2022-10-19T07:47:21.119Z,1.00
2022-10-19T07:49:48.680Z,1.42
2022-10-19T07:52:16.264Z,1.45
2022-10-19T07:54:43.486Z,0.95
2022-10-19T07:57:12.339Z,1.45
2022-10-19T07:59:39.605Z,1.05
2022-10-19T08:02:13.551Z,0.80
2022-10-19T08:04:59.779Z,1.15
2022-10-19T08:07:28.089Z,1.30
2022-10-19T08:09:55.471Z,0.70
2022-10-19T08:12:22.802Z,0.77
2022-10-19T08:14:50.012Z,1.35
2022-10-19T08:17:17.846Z,1.60
2022-10-19T08:19:46.524Z,1.45
2022-10-19T08:22:13.995Z,1.25
2022-10-19T08:24:41.176Z,1.05
2022-10-19T08:27:09.090Z,0.93
2022-10-19T08:29:36.330Z,1.02
2022-10-19T08:32:03.563Z,1.52
2022-10-19T08:34:30.829Z,1.40
2022-10-19T08:36:58.056Z,1.20
2022-10-19T08:39:25.248Z,1.30
2022-10-19T08:42:06.931Z,1.77
2022-10-19T08:44:50.898Z,1.13
2022-10-19T08:47:30.108Z,1.63
2022-10-19T08:49:58.723Z,1.30
2022-10-19T08:52:34.622Z,1.38
2022-10-19T08:55:16.430Z,1.27
2022-10-19T08:58:21.128Z,1.65
2022-10-19T09:01:06.080Z,1.85
2022-10-19T09:06:37.791Z,2.03
2022-10-19T09:09:06.506Z,1.55
2022-10-19T09:11:42.909Z,1.92
2022-10-19T09:14:31.554Z,1.80
2022-10-19T09:17:10.711Z,1.58
2022-10-19T09:19:37.998Z,1.83
2022-10-19T09:22:13.170Z,0.95
2022-10-19T09:24:57.383Z,1.15
2022-10-19T09:27:30.227Z,1.00
2022-10-19T09:30:01.267Z,2.25
2022-10-19T09:32:33.403Z,1.05
2022-10-19T09:35:04.927Z,2.03
2022-10-19T09:37:37.327Z,1.63
2022-10-19T09:40:06.570Z,1.35
2022-10-19T09:42:36.868Z,1.30
2022-10-19T09:45:43.253Z,1.65
2022-10-19T09:48:31.091Z,1.73
2022-10-19T09:51:03.945Z,1.08
2022-10-19T09:53:31.284Z,1.67
2022-10-19T09:56:07.636Z,1.60
2022-10-19T09:58:35.679Z,1.95
2022-10-19T10:01:03.904Z,1.45
2022-10-19T10:03:36.111Z,1.55
2022-10-19T10:06:14.150Z,1.10
2022-10-19T10:08:50.515Z,1.52
2022-10-19T10:11:25.145Z,1.65
2022-10-19T10:16:23.803Z,1.50
2022-10-19T10:19:03.968Z,1.30
2022-10-19T10:21:46.243Z,2.30
2022-10-19T10:24:13.386Z,1.20
2022-10-19T10:26:43.374Z,1.83
2022-10-19T10:29:20.619Z,2.40
2022-10-19T10:31:53.062Z,2.65
2022-10-19T10:34:50.239Z,1.90
2022-10-19T10:37:28.442Z,2.17
2022-10-19T10:40:00.527Z,1.70
2022-10-19T10:42:43.970Z,1.70
2022-10-19T10:45:19.547Z,2.40
2022-10-19T10:47:48.534Z,2.08
2022-10-19T10:50:31.629Z,1.25
2022-10-19T10:53:04.771Z,1.35
2022-10-19T10:55:33.125Z,1.67
2022-10-19T10:58:55.666Z,1.98
2022-10-19T11:01:27.899Z,2.83
2022-10-19T11:04:03.589Z,1.70
2022-10-19T11:06:34.090Z,1.75
2022-10-19T11:09:25.374Z,1.58
2022-10-19T11:11:56.175Z,2.58
2022-10-19T11:14:44.011Z,2.83
2022-10-19T11:17:33.167Z,1.55
2022-10-19T11:20:01.018Z,1.55
2022-10-19T11:22:35.004Z,1.95
2022-10-19T11:25:02.794Z,1.15
2022-10-19T11:27:57.022Z,1.75
2022-10-19T11:30:25.592Z,1.48
2022-10-19T11:33:14.929Z,1.30
2022-10-19T11:36:03.403Z,2.03
2022-10-19T11:38:51.050Z,1.60
2022-10-19T11:41:26.930Z,1.67
2022-10-19T11:44:06.329Z,2.03
2022-10-19T11:46:48.074Z,1.45
2022-10-19T11:49:45.612Z,1.50
2022-10-19T11:52:17.069Z,1.88
2022-10-19T11:55:13.975Z,1.55
2022-10-19T11:57:49.885Z,1.25
2022-10-19T12:00:38.074Z,2.55
2022-10-19T12:03:37.351Z,2.17
2022-10-19T12:06:13.079Z,1.65
2022-10-19T12:09:07.383Z,1.63
2022-10-19T12:12:02.371Z,1.58
2022-10-19T12:14:37.256Z,1.40
2022-10-19T12:17:21.814Z,1.85
2022-10-19T12:19:53.413Z,1.58
2022-10-19T12:22:29.910Z,2.15
2022-10-19T12:25:00.629Z,2.05
2022-10-19T12:27:35.430Z,1.70
2022-10-19T12:30:23.846Z,1.88
2022-10-19T12:33:15.483Z,1.58
2022-10-19T12:35:55.785Z,1.45
2022-10-19T12:38:48.027Z,1.63
2022-10-19T12:44:07.437Z,1.67
2022-10-19T12:46:40.530Z,2.03
2022-10-19T12:49:26.441Z,1.40
2022-10-19T12:51:55.622Z,1.38
2022-10-19T12:54:28.460Z,1.65
2022-10-19T12:56:58.548Z,1.95
2022-10-19T12:59:36.599Z,2.55
2022-10-19T13:02:06.788Z,2.45
2022-10-19T13:04:36.217Z,1.63
2022-10-19T13:07:08.269Z,1.55
2022-10-19T13:09:35.384Z,1.45
2022-10-19T13:12:21.571Z,1.65
2022-10-19T13:14:53.897Z,1.75
2022-10-19T13:17:49.151Z,1.85
2022-10-19T13:22:50.815Z,2.00
2022-10-19T13:25:23.782Z,2.65
2022-10-19T13:28:02.116Z,1.42
2022-10-19T13:30:38.520Z,2.25
2022-10-19T13:33:32.866Z,2.22
2022-10-19T13:36:00.081Z,2.75
2022-10-19T13:38:28.280Z,1.88
2022-10-19T13:40:55.415Z,2.53
2022-10-19T13:43:29.528Z,1.60
2022-10-19T13:46:20.117Z,1.85
2022-10-19T13:48:56.509Z,1.83
2022-10-19T13:51:37.750Z,2.10
2022-10-19T13:54:22.739Z,2.28
2022-10-19T13:56:57.986Z,2.05
2022-10-19T13:59:55.580Z,2.17
2022-10-19T14:02:43.879Z,1.52
2022-10-19T14:05:43.614Z,1.80
2022-10-19T14:08:19.847Z,2.95
2022-10-19T14:11:19.701Z,1.70
2022-10-19T14:14:06.723Z,1.77
2022-10-19T14:16:33.919Z,3.33
2022-10-19T14:19:01.355Z,1.75
2022-10-19T14:21:37.090Z,2.38
2022-10-19T14:24:30.486Z,1.75
2022-10-19T14:27:00.835Z,2.28
2022-10-19T14:29:28.585Z,1.70
2022-10-19T14:31:58.697Z,2.17
2022-10-19T14:34:26.054Z,1.67
2022-10-19T14:36:53.449Z,2.47
2022-10-19T14:39:33.409Z,2.45
2022-10-19T14:42:10.639Z,2.17
2022-10-19T14:44:43.224Z,2.10
2022-10-19T14:47:30.378Z,1.17
2022-10-19T14:49:57.613Z,2.22
2022-10-19T14:52:31.086Z,1.85
2022-10-19T14:55:02.011Z,1.70
2022-10-19T14:57:35.109Z,2.50
2022-10-19T15:00:10.694Z,2.17
2022-10-19T15:02:42.745Z,2.15
2022-10-19T15:05:23.795Z,1.95
2022-10-19T15:07:51.333Z,2.60
2022-10-19T15:10:30.307Z,2.00
2022-10-19T15:13:06.593Z,2.65
2022-10-19T15:15:35.506Z,1.45
2022-10-19T15:18:03.175Z,2.53
2022-10-19T15:20:44.132Z,1.65
2022-10-19T15:23:40.017Z,2.17
2022-10-19T15:26:29.576Z,3.17
2022-10-19T15:29:08.794Z,2.15
2022-10-19T15:31:36.178Z,2.67
2022-10-19T15:34:04.107Z,2.85
2022-10-19T15:36:32.989Z,3.10
2022-10-19T15:41:54.954Z,2.22
2022-10-19T15:44:42.373Z,2.67
2022-10-19T15:47:15.771Z,3.03
2022-10-19T15:49:43.106Z,2.30
2022-10-19T15:52:21.655Z,2.35
2022-10-19T15:54:50.908Z,2.70
2022-10-19T15:57:38.950Z,2.85
2022-10-19T16:00:17.630Z,3.10
2022-10-19T16:02:44.964Z,2.10
2022-10-19T16:05:12.171Z,2.05
2022-10-19T16:07:41.049Z,2.50
2022-10-19T16:10:14.452Z,2.08
2022-10-19T16:12:41.756Z,3.00
2022-10-19T16:15:22.184Z,2.40
2022-10-19T16:17:59.048Z,2.17
2022-10-19T16:20:28.651Z,2.38
2022-10-19T16:22:56.381Z,2.38
2022-10-19T16:25:23.792Z,2.38
2022-10-19T16:27:51.108Z,1.80
2022-10-19T16:30:18.351Z,2.40
2022-10-19T16:32:48.197Z,2.28
2022-10-19T16:35:15.781Z,3.15
2022-10-19T16:37:43.054Z,3.08
2022-10-19T16:40:10.554Z,2.45
2022-10-19T16:42:38.154Z,3.63
2022-10-19T16:45:05.890Z,3.38
2022-10-19T16:47:33.101Z,3.05
2022-10-19T16:50:01.871Z,2.10
2022-10-19T16:52:31.853Z,2.72
2022-10-19T16:54:59.989Z,3.58
2022-10-19T16:57:27.335Z,3.75
2022-10-19T16:59:55.047Z,1.90
2022-10-19T17:02:22.927Z,3.55
2022-10-19T17:04:50.283Z,2.95
2022-10-19T17:07:18.281Z,2.70
2022-10-19T17:09:45.721Z,3.45
2022-10-19T17:12:13.176Z,2.70
2022-10-19T17:14:41.963Z,2.05
2022-10-19T17:17:10.582Z,2.92
2022-10-19T17:19:38.124Z,2.75
2022-10-19T17:22:05.677Z,2.65
2022-10-19T17:24:33.207Z,2.97
2022-10-19T17:27:03.282Z,2.72
2022-10-19T17:29:31.145Z,3.20
2022-10-19T17:31:59.169Z,4.13
2022-10-19T17:34:27.448Z,2.83
2022-10-19T17:36:54.745Z,3.05
2022-10-19T17:39:27.235Z,2.80
2022-10-19T17:42:02.053Z,3.10
2022-10-19T17:44:31.578Z,3.80
2022-10-19T17:47:00.646Z,4.65
2022-10-19T17:49:29.873Z,3.67
2022-10-19T17:51:57.197Z,4.15
2022-10-19T17:54:24.483Z,4.07
2022-10-19T17:56:51.828Z,3.80
2022-10-19T17:59:29.941Z,2.70
2022-10-19T18:02:02.939Z,2.88
2022-10-19T18:04:30.155Z,3.85
2022-10-19T18:06:57.416Z,3.35
2022-10-19T18:09:24.583Z,4.10
2022-10-19T18:11:51.862Z,3.55
2022-10-19T18:14:19.061Z,4.40
2022-10-19T18:16:47.346Z,4.20
2022-10-19T18:19:16.171Z,3.03
2022-10-19T18:21:45.639Z,5.00
2022-10-19T18:24:16.965Z,4.28
2022-10-19T18:26:44.197Z,5.18
2022-10-19T18:29:17.623Z,5.03
2022-10-19T18:31:49.189Z,3.78
2022-10-19T18:34:17.286Z,3.38
2022-10-19T18:36:44.533Z,3.92
2022-10-19T18:39:13.423Z,3.30
2022-10-19T18:41:41.162Z,4.30
2022-10-19T18:44:11.581Z,3.88
2022-10-19T18:46:40.515Z,4.35
2022-10-19T18:49:08.348Z,4.75
2022-10-19T18:51:36.157Z,5.20
2022-10-19T18:54:03.705Z,3.60
2022-10-19T18:56:33.427Z,4.07
2022-10-19T18:59:00.707Z,4.60
2022-10-19T19:01:29.147Z,5.53
2022-10-19T19:03:58.397Z,5.05
2022-10-19T19:06:30.316Z,4.65
2022-10-19T19:08:59.254Z,4.68
2022-10-19T19:11:30.713Z,3.75
2022-10-19T19:14:10.938Z,4.80
2022-10-19T19:16:39.596Z,5.65
2022-10-19T19:19:07.964Z,5.05
2022-10-19T19:21:36.652Z,5.28
2022-10-19T19:24:06.284Z,7.00
2022-10-19T19:26:37.456Z,7.00
2022-10-19T19:29:04.892Z,6.57
2022-10-19T19:31:32.257Z,5.97
2022-10-19T19:34:01.157Z,6.90
2022-10-19T19:36:28.885Z,5.93
2022-10-19T19:38:57.532Z,4.22
2022-10-19T19:41:25.048Z,4.60
2022-10-19T19:43:55.533Z,4.28
2022-10-19T19:46:22.731Z,5.95
2022-10-19T19:48:49.952Z,5.20
2022-10-19T19:51:20.097Z,5.57
2022-10-19T19:53:48.213Z,6.60
2022-10-19T19:56:17.043Z,4.05
2022-10-19T19:58:45.263Z,5.05
2022-10-19T20:01:18.579Z,5.78
2022-10-19T20:03:46.833Z,5.97
2022-10-19T20:06:17.256Z,6.65
2022-10-19T20:08:45.966Z,5.78
2022-10-19T20:11:16.027Z,5.53
2022-10-19T20:13:44.928Z,6.13
2022-10-19T20:16:17.723Z,5.70
2022-10-19T20:18:48.390Z,4.85
2022-10-19T20:21:16.906Z,6.30
2022-10-19T20:23:47.862Z,6.45
2022-10-19T20:26:19.737Z,5.93
2022-10-19T20:28:47.123Z,6.25
2022-10-19T20:31:15.258Z,7.60
2022-10-19T20:33:44.101Z,7.15
2022-10-19T20:36:14.067Z,6.28
2022-10-19T20:38:49.918Z,5.88
2022-10-19T20:41:18.200Z,4.20
2022-10-19T20:43:48.579Z,6.18
2022-10-19T20:46:22.665Z,6.35
2022-10-19T20:48:51.051Z,9.32
2022-10-19T20:51:27.525Z,6.93
2022-10-19T20:54:00.465Z,7.07
2022-10-19T20:56:31.380Z,6.68
2022-10-19T21:01:30.584Z,7.40
2022-10-19T21:04:01.457Z,5.68
2022-10-19T21:06:30.523Z,6.32
2022-10-19T21:08:59.043Z,6.50
2022-10-19T21:11:32.249Z,7.35
2022-10-19T21:14:02.258Z,6.22
2022-10-19T21:16:30.416Z,6.57
2022-10-19T21:18:57.799Z,6.50
2022-10-19T21:21:27.868Z,6.40
2022-10-19T21:23:57.818Z,7.50
2022-10-19T21:26:26.627Z,6.53
2022-10-19T21:28:54.511Z,6.57
2022-10-19T21:31:23.296Z,6.85
2022-10-19T21:33:51.774Z,6.10
2022-10-19T21:36:21.054Z,7.25
2022-10-19T21:38:48.834Z,7.15
2022-10-19T21:41:20.972Z,6.57
2022-10-19T21:43:51.211Z,7.47
2022-10-19T21:46:20.286Z,7.18
2022-10-19T21:48:51.226Z,6.28
2022-10-19T21:51:24.274Z,6.93
2022-10-19T21:53:51.668Z,6.40
2022-10-19T21:56:18.874Z,5.65
2022-10-19T21:58:47.381Z,6.55
2022-10-19T22:01:15.473Z,6.82
2022-10-19T22:03:42.778Z,7.22
2022-10-19T22:06:11.459Z,7.47
2022-10-19T22:08:39.520Z,7.10
2022-10-19T22:11:12.083Z,6.50
2022-10-19T22:13:39.627Z,7.15
2022-10-19T22:16:16.170Z,7.30
2022-10-19T22:18:43.724Z,6.57
2022-10-19T22:21:13.928Z,6.55
2022-10-19T22:23:41.991Z,7.68
2022-10-19T22:26:19.609Z,6.40
2022-10-19T22:28:46.949Z,6.07
2022-10-19T22:31:14.467Z,6.57
2022-10-19T22:33:42.090Z,7.00
2022-10-19T22:36:13.135Z,7.15
2022-10-19T22:38:41.124Z,6.38
2022-10-19T22:42:04.547Z,6.22
2022-10-19T22:44:47.135Z,7.43
2022-10-19T22:47:14.349Z,6.43
2022-10-19T22:49:41.604Z,6.40
2022-10-19T22:52:08.870Z,7.10
2022-10-19T22:54:36.192Z,5.93
2022-10-19T22:57:03.677Z,6.82
2022-10-19T22:59:30.933Z,7.22
2022-10-19T23:01:58.196Z,6.25
2022-10-19T23:04:25.491Z,7.78
2022-10-19T23:06:52.688Z,6.25
2022-10-19T23:09:19.907Z,7.25
2022-10-19T23:11:47.248Z,6.70
2022-10-19T23:14:14.722Z,7.57
2022-10-19T23:16:42.019Z,7.32
2022-10-19T23:19:09.238Z,6.13
2022-10-19T23:21:36.475Z,6.57
2022-10-19T23:24:03.917Z,7.40
2022-10-19T23:26:31.177Z,6.97
2022-10-19T23:28:58.386Z,6.82
2022-10-19T23:31:26.839Z,5.72
2022-10-19T23:33:54.649Z,7.30
2022-10-19T23:36:25.449Z,7.63
2022-10-19T23:38:53.768Z,5.75
2022-10-19T23:41:21.925Z,6.43
2022-10-19T23:43:49.863Z,7.50
2022-10-19T23:46:17.050Z,8.02
2022-10-19T23:48:44.555Z,7.28
2022-10-19T23:51:14.444Z,7.07
2022-10-19T23:53:43.514Z,7.97
2022-10-19T23:56:23.001Z,7.60
2022-10-19T23:58:51.088Z,8.07
